Station History

Weather Underground - logo

Station Historical Data
Daily Summary for July 16, 2017 Units:  English    Metric   Both
« Previous Day
Next Day »
Daily Weekly Monthly Yearly Custom
  High: Low: Average:
Temperature: 101.4 °F 74.0 °F 86.3 °F
Dew Point: 69.5 °F 60.2 °F 64.6 °F
Humidity: 70 % 27 % 51 %
Wind Speed: 4.6 mph 0.0 mph 0.9 mph
Wind Gust: 4.6 mph - -
Wind:- - SW
Pressure: 29.86 in 29.70 in -
Precipitation: 0.00 in    
Historical Graphs
 
 
Tabular Data for July 16, 2017
Time Temperature Dew Point Pressure Wind Wind Speed Wind Gust Humidity Rainfall Rate (Hourly)
00:02 77.7 °F 64.1 °F 29.85 in Calm     63 % 0.00 in
00:07 77.6 °F 64.5 °F 29.85 in Calm     64 % 0.00 in
00:12 77.3 °F 63.7 °F 29.85 in Calm     63 % 0.00 in
00:17 77.1 °F 64.0 °F 29.85 in Calm     64 % 0.00 in
00:22 77.1 °F 65.3 °F 29.85 in Calm     67 % 0.00 in
00:27 77.0 °F 65.2 °F 29.85 in Calm     67 % 0.00 in
00:32 76.7 °F 64.5 °F 29.85 in Calm     66 % 0.00 in
00:37 76.6 °F 64.4 °F 29.85 in Calm     66 % 0.00 in
00:42 76.6 °F 64.4 °F 29.84 in Calm     66 % 0.00 in
00:47 76.4 °F 64.2 °F 29.84 in Calm     66 % 0.00 in
00:50 76.4 °F 64.2 °F 29.84 in Calm     66 % 0.00 in
00:55 76.2 °F 64.0 °F 29.84 in Calm     66 % 0.00 in
01:00 76.0 °F 63.8 °F 29.84 in Calm     66 % 0.00 in
01:05 75.8 °F 64.5 °F 29.84 in Calm     68 % 0.00 in
01:10 75.4 °F 64.1 °F 29.84 in Calm     68 % 0.00 in
01:15 75.1 °F 63.8 °F 29.84 in Calm     68 % 0.00 in
01:20 75.1 °F 63.8 °F 29.84 in Calm     68 % 0.00 in
01:25 75.0 °F 63.7 °F 29.84 in Calm     68 % 0.00 in
01:30 74.9 °F 63.6 °F 29.84 in Calm     68 % 0.00 in
01:35 75.1 °F 64.6 °F 29.84 in Calm     70 % 0.00 in
01:40 75.4 °F 63.2 °F 29.84 in Calm     66 % 0.00 in
01:45 75.6 °F 63.9 °F 29.83 in Calm     67 % 0.00 in
01:50 75.6 °F 63.9 °F 29.84 in Calm     67 % 0.00 in
01:55 75.5 °F 63.3 °F 29.83 in Calm     66 % 0.00 in
02:00 75.5 °F 63.3 °F 29.83 in Calm     66 % 0.00 in
02:05 75.5 °F 62.9 °F 29.83 in Calm     65 % 0.00 in
02:10 75.6 °F 62.6 °F 29.83 in Calm     64 % 0.00 in
02:16 75.7 °F 62.2 °F 29.83 in Calm     63 % 0.00 in
02:21 75.7 °F 62.2 °F 29.84 in Calm     63 % 0.00 in
02:26 75.7 °F 62.2 °F 29.83 in Calm     63 % 0.00 in
02:31 75.6 °F 62.6 °F 29.83 in Calm     64 % 0.00 in
02:36 75.5 °F 62.0 °F 29.84 in Calm     63 % 0.00 in
02:41 75.5 °F 62.5 °F 29.84 in Calm     64 % 0.00 in
02:46 75.4 °F 62.8 °F 29.83 in Calm     65 % 0.00 in
02:51 75.4 °F 62.8 °F 29.84 in Calm     65 % 0.00 in
02:56 75.3 °F 63.2 °F 29.84 in Calm     66 % 0.00 in
03:01 75.2 °F 63.5 °F 29.84 in Calm     67 % 0.00 in
03:06 75.1 °F 63.0 °F 29.84 in Calm     66 % 0.00 in
03:11 75.2 °F 63.1 °F 29.84 in Calm     66 % 0.00 in
03:16 75.2 °F 63.1 °F 29.84 in Calm     66 % 0.00 in
03:21 75.2 °F 62.6 °F 29.83 in NNW 1.2 mph   65 % 0.00 in
03:26 75.2 °F 62.6 °F 29.83 in NNW 1.2 mph   65 % 0.00 in
03:31 75.3 °F 62.7 °F 29.83 in Calm     65 % 0.00 in
03:36 75.3 °F 63.2 °F 29.83 in Calm     66 % 0.00 in
03:41 75.2 °F 63.1 °F 29.83 in Calm     66 % 0.00 in
03:46 75.0 °F 63.3 °F 29.83 in Calm     67 % 0.00 in
03:51 74.9 °F 62.8 °F 29.84 in NNW 1.2 mph 1.2 mph 66 % 0.00 in
03:56 75.0 °F 62.9 °F 29.83 in Calm     66 % 0.00 in
04:01 75.1 °F 62.5 °F 29.83 in Calm     65 % 0.00 in
04:06 75.2 °F 62.6 °F 29.84 in Calm     65 % 0.00 in
04:11 75.2 °F 62.6 °F 29.83 in Calm     65 % 0.00 in
04:16 75.3 °F 62.3 °F 29.83 in NNW 1.2 mph 1.2 mph 64 % 0.00 in
04:21 75.4 °F 62.4 °F 29.83 in Calm     64 % 0.00 in
04:26 75.7 °F 62.2 °F 29.83 in Calm     63 % 0.00 in
04:31 76.0 °F 61.6 °F 29.83 in Calm     61 % 0.00 in
04:36 76.3 °F 61.4 °F 29.82 in Calm     60 % 0.00 in
04:41 76.5 °F 62.0 °F 29.83 in Calm     61 % 0.00 in
04:47 76.0 °F 62.9 °F 29.83 in North 1.2 mph   64 % 0.00 in
04:52 75.3 °F 62.3 °F 29.83 in Calm     64 % 0.00 in
04:57 75.0 °F 61.5 °F 29.84 in Calm     63 % 0.00 in
05:02 74.9 °F 62.3 °F 29.84 in North 1.2 mph   65 % 0.00 in
05:07 74.7 °F 61.7 °F 29.84 in Calm     64 % 0.00 in
05:12 74.6 °F 62.1 °F 29.85 in Calm     65 % 0.00 in
05:17 74.6 °F 62.5 °F 29.85 in Calm     66 % 0.00 in
05:22 74.4 °F 61.9 °F 29.84 in Calm     65 % 0.00 in
05:27 74.5 °F 62.0 °F 29.84 in North 1.2 mph 1.2 mph 65 % 0.00 in
05:32 74.8 °F 61.4 °F 29.84 in North 1.2 mph 1.2 mph 63 % 0.00 in
05:37 75.1 °F 61.2 °F 29.84 in NNE 1.2 mph 1.2 mph 62 % 0.00 in
05:42 75.1 °F 61.2 °F 29.83 in NNE 1.2 mph   62 % 0.00 in
05:47 75.0 °F 61.5 °F 29.84 in NNE 1.2 mph   63 % 0.00 in
05:52 75.0 °F 62.0 °F 29.84 in Calm     64 % 0.00 in
05:57 74.7 °F 62.1 °F 29.85 in Calm     65 % 0.00 in
06:02 74.4 °F 62.3 °F 29.85 in Calm     66 % 0.00 in
06:07 74.1 °F 62.0 °F 29.85 in Calm     66 % 0.00 in
06:12 74.0 °F 61.9 °F 29.85 in Calm     66 % 0.00 in
06:17 74.1 °F 62.4 °F 29.85 in Calm     67 % 0.00 in
06:22 74.2 °F 62.1 °F 29.85 in Calm     66 % 0.00 in
06:27 74.3 °F 63.5 °F 29.84 in Calm     69 % 0.00 in
06:32 74.5 °F 62.8 °F 29.84 in Calm     67 % 0.00 in
06:37 74.6 °F 63.3 °F 29.86 in Calm     68 % 0.00 in
06:42 74.8 °F 62.7 °F 29.85 in NE 2.0 mph 2.0 mph 66 % 0.00 in
06:47 75.2 °F 62.6 °F 29.85 in ENE 2.3 mph 2.3 mph 65 % 0.00 in
06:52 75.8 °F 61.8 °F 29.85 in ENE 2.3 mph 2.3 mph 62 % 0.00 in
06:57 76.6 °F 62.1 °F 29.85 in Calm     61 % 0.00 in
07:02 77.2 °F 62.7 °F 29.85 in Calm     61 % 0.00 in
07:07 77.8 °F 62.8 °F 29.85 in Calm     60 % 0.00 in
07:12 78.6 °F 63.6 °F 29.84 in Calm     60 % 0.00 in
07:17 79.4 °F 63.3 °F 29.84 in Calm     58 % 0.00 in
07:22 80.7 °F 62.5 °F 29.84 in Calm     54 % 0.00 in
07:27 82.1 °F 64.3 °F 29.85 in Calm     55 % 0.00 in
07:32 81.9 °F 65.7 °F 29.85 in Calm     58 % 0.00 in
07:37 81.5 °F 65.3 °F 29.85 in WSW 1.2 mph   58 % 0.00 in
07:42 81.4 °F 64.7 °F 29.85 in Calm     57 % 0.00 in
07:47 81.8 °F 64.6 °F 29.85 in Calm     56 % 0.00 in
07:52 82.9 °F 63.5 °F 29.84 in ESE 1.2 mph 1.2 mph 52 % 0.00 in
07:57 83.6 °F 64.1 °F 29.85 in NNW 1.2 mph 1.2 mph 52 % 0.00 in
08:02 83.8 °F 63.2 °F 29.85 in NNW 1.2 mph   50 % 0.00 in
08:07 83.6 °F 63.6 °F 29.84 in SSE 1.0 mph 1.0 mph 51 % 0.00 in
08:12 83.2 °F 64.3 °F 29.85 in Calm     53 % 0.00 in
08:17 82.9 °F 63.5 °F 29.84 in Calm     52 % 0.00 in
08:22 82.9 °F 63.5 °F 29.84 in Calm     52 % 0.00 in
08:27 82.7 °F 64.4 °F 29.84 in Calm     54 % 0.00 in
08:32 82.3 °F 65.0 °F 29.84 in Calm     56 % 0.00 in
08:37 82.2 °F 63.9 °F 29.84 in Calm     54 % 0.00 in
08:42 82.4 °F 65.6 °F 29.84 in Calm     57 % 0.00 in
08:47 82.7 °F 64.9 °F 29.84 in Calm     55 % 0.00 in
08:52 82.6 °F 64.3 °F 29.84 in Calm     54 % 0.00 in
08:57 82.5 °F 64.2 °F 29.84 in Calm     54 % 0.00 in
09:02 82.9 °F 65.1 °F 29.84 in Calm     55 % 0.00 in
09:07 83.4 °F 66.1 °F 29.84 in Calm     56 % 0.00 in
09:12 83.8 °F 66.4 °F 29.83 in Calm     56 % 0.00 in
09:17 84.3 °F 64.2 °F 29.83 in Calm   0.2 mph 51 % 0.00 in
09:22 84.2 °F 64.7 °F 29.83 in West 1.2 mph   52 % 0.00 in
09:27 84.3 °F 65.8 °F 29.83 in Calm     54 % 0.00 in
09:32 84.7 °F 66.2 °F 29.84 in Calm     54 % 0.00 in
09:37 85.1 °F 67.1 °F 29.84 in Calm     55 % 0.00 in
09:42 85.6 °F 65.4 °F 29.84 in Calm     51 % 0.00 in
09:47 85.9 °F 66.2 °F 29.83 in NW 1.2 mph   52 % 0.00 in
09:52 86.0 °F 65.2 °F 29.83 in Calm     50 % 0.00 in
09:57 86.1 °F 65.3 °F 29.83 in Calm     50 % 0.00 in
10:02 86.3 °F 65.5 °F 29.83 in Calm     50 % 0.00 in
10:07 86.4 °F 66.7 °F 29.83 in Calm     52 % 0.00 in
10:12 86.7 °F 65.3 °F 29.83 in SE 1.2 mph   49 % 0.00 in
10:17 87.0 °F 66.1 °F 29.83 in SE 1.0 mph   50 % 0.00 in
10:23 87.1 °F 66.2 °F 29.83 in Calm     50 % 0.00 in
10:28 87.2 °F 68.5 °F 29.83 in Calm     54 % 0.00 in
10:33 87.2 °F 66.9 °F 29.83 in Calm     51 % 0.00 in
10:38 87.4 °F 66.5 °F 29.83 in Calm     50 % 0.00 in
10:43 88.4 °F 68.5 °F 29.83 in SE 2.3 mph 2.3 mph 52 % 0.00 in
10:48 88.8 °F 65.4 °F 29.82 in WNW 1.2 mph 1.2 mph 46 % 0.00 in
10:53 88.9 °F 66.1 °F 29.83 in WNW 1.2 mph 1.2 mph 47 % 0.00 in
10:58 89.6 °F 66.7 °F 29.83 in WNW 1.2 mph 1.2 mph 47 % 0.00 in
11:03 90.5 °F 65.6 °F 29.83 in NNW 2.3 mph 2.3 mph 44 % 0.00 in
11:08 91.3 °F 68.2 °F 29.83 in NNE 3.5 mph 3.5 mph 47 % 0.00 in
11:13 92.0 °F 67.6 °F 29.82 in NNW 1.2 mph 1.2 mph 45 % 0.00 in
11:18 92.7 °F 66.2 °F 29.82 in East 2.3 mph 2.3 mph 42 % 0.00 in
11:23 93.1 °F 65.9 °F 29.82 in Calm     41 % 0.00 in
11:28 93.3 °F 65.4 °F 29.82 in ESE 1.2 mph 1.2 mph 40 % 0.00 in
11:33 92.6 °F 65.5 °F 29.82 in NNW 2.3 mph 2.3 mph 41 % 0.00 in
11:38 93.1 °F 68.0 °F 29.82 in North 1.0 mph 1.0 mph 44 % 0.00 in
11:43 93.8 °F 66.5 °F 29.82 in WNW 2.0 mph 2.0 mph 41 % 0.00 in
11:48 94.3 °F 65.5 °F 29.82 in SE 3.5 mph 3.5 mph 39 % 0.00 in
11:53 94.9 °F 63.8 °F 29.82 in North 2.3 mph 2.3 mph 36 % 0.00 in
11:58 95.9 °F 67.0 °F 29.82 in Calm     39 % 0.00 in
12:03 96.2 °F 64.9 °F 29.82 in ESE 1.2 mph 1.2 mph 36 % 0.00 in
12:08 96.2 °F 64.1 °F 29.82 in East 3.5 mph 3.5 mph 35 % 0.00 in
12:13 96.7 °F 67.7 °F 29.81 in WNW 1.0 mph 1.0 mph 39 % 0.00 in
12:18 96.9 °F 67.8 °F 29.81 in NNE 2.3 mph 2.3 mph 39 % 0.00 in
12:23 96.7 °F 65.4 °F 29.81 in East 3.5 mph 3.5 mph 36 % 0.00 in
12:28 96.7 °F 69.1 °F 29.81 in North 1.2 mph 1.2 mph 41 % 0.00 in
12:33 96.2 °F 64.9 °F 29.81 in WNW 2.3 mph 2.3 mph 36 % 0.00 in
12:38 96.3 °F 68.8 °F 29.81 in NNW 1.2 mph 1.2 mph 41 % 0.00 in
12:43 96.5 °F 64.4 °F 29.81 in NW 2.3 mph 2.3 mph 35 % 0.00 in
12:48 96.8 °F 63.8 °F 29.81 in West 2.3 mph 2.3 mph 34 % 0.00 in
12:53 97.3 °F 64.2 °F 29.80 in ESE 3.5 mph 3.5 mph 34 % 0.00 in
12:58 97.4 °F 64.3 °F 29.80 in WSW 3.5 mph 3.5 mph 34 % 0.00 in
13:04 97.9 °F 64.8 °F 29.80 in NW 4.0 mph 4.0 mph 34 % 0.00 in
13:09 97.2 °F 62.4 °F 29.80 in NW 3.5 mph 3.5 mph 32 % 0.00 in
13:13 97.5 °F 64.4 °F 29.80 in SW 2.3 mph 2.3 mph 34 % 0.00 in
13:19 97.6 °F 65.3 °F 29.80 in East 3.5 mph 3.5 mph 35 % 0.00 in
13:24 97.5 °F 64.4 °F 29.80 in NE 3.5 mph 3.5 mph 34 % 0.00 in
13:29 97.6 °F 60.9 °F 29.80 in WNW 3.5 mph 3.5 mph 30 % 0.00 in
13:34 97.5 °F 64.4 °F 29.80 in SSE 1.2 mph 1.2 mph 34 % 0.00 in
13:39 98.3 °F 63.4 °F 29.79 in East 3.5 mph 3.5 mph 32 % 0.00 in
13:44 97.8 °F 61.1 °F 29.79 in NE 3.5 mph 3.5 mph 30 % 0.00 in
13:49 97.9 °F 62.1 °F 29.79 in NNW 3.5 mph 3.5 mph 31 % 0.00 in
13:54 98.1 °F 64.9 °F 29.79 in ESE 2.3 mph 2.3 mph 34 % 0.00 in
13:59 98.9 °F 62.1 °F 29.78 in NW 3.5 mph 3.5 mph 30 % 0.00 in
14:26 99.8 °F 64.7 °F 29.78 in SSE 4.6 mph 4.6 mph 32 % 0.00 in
14:31 100.6 °F 61.6 °F 29.77 in NE 3.5 mph 3.5 mph 28 % 0.00 in
14:36 100.8 °F 63.7 °F 29.77 in NNW 2.0 mph 2.0 mph 30 % 0.00 in
14:41 100.6 °F 62.6 °F 29.77 in NW 2.0 mph 2.0 mph 29 % 0.00 in
14:46 100.2 °F 60.2 °F 29.77 in WSW 1.2 mph 1.2 mph 27 % 0.00 in
14:51 101.0 °F 62.9 °F 29.77 in SW 1.2 mph 1.2 mph 29 % 0.00 in
14:56 101.4 °F 62.2 °F 29.77 in WNW 2.3 mph 2.3 mph 28 % 0.00 in
15:01 100.8 °F 62.7 °F 29.76 in WNW 2.3 mph 2.3 mph 29 % 0.00 in
15:06 100.8 °F 62.7 °F 29.76 in NNE 2.0 mph 2.0 mph 29 % 0.00 in
15:11 100.9 °F 61.8 °F 29.76 in West 1.2 mph 1.5 mph 28 % 0.00 in
15:16 100.8 °F 63.7 °F 29.76 in WNW 2.3 mph 2.3 mph 30 % 0.00 in
15:21 100.8 °F 64.6 °F 29.76 in North 3.5 mph 3.5 mph 31 % 0.00 in
15:26 100.8 °F 64.6 °F 29.76 in West 2.3 mph 2.3 mph 31 % 0.00 in
15:27 100.8 °F 64.6 °F 29.76 in North 2.3 mph 2.3 mph 31 % 0.00 in
15:32 100.9 °F 64.7 °F 29.76 in West 2.0 mph 2.0 mph 31 % 0.00 in
15:37 100.6 °F 64.5 °F 29.76 in ESE 1.2 mph 1.2 mph 31 % 0.00 in
15:42 99.4 °F 63.4 °F 29.76 in NW 3.5 mph 3.5 mph 31 % 0.00 in
15:47 99.3 °F 64.2 °F 29.75 in West 2.3 mph 2.3 mph 32 % 0.00 in
15:52 99.5 °F 67.8 °F 29.75 in SSE 1.2 mph   36 % 0.00 in
15:57 99.7 °F 66.3 °F 29.75 in SE 2.3 mph 2.3 mph 34 % 0.00 in
16:02 99.6 °F 65.4 °F 29.75 in NNW 2.3 mph 2.3 mph 33 % 0.00 in
16:07 99.5 °F 66.2 °F 29.74 in WNW 1.2 mph 1.2 mph 34 % 0.00 in
16:12 99.6 °F 64.5 °F 29.74 in WNW 2.3 mph 2.3 mph 32 % 0.00 in
16:17 99.7 °F 66.3 °F 29.74 in West 3.0 mph 3.0 mph 34 % 0.00 in
16:22 99.1 °F 64.1 °F 29.74 in SSE 1.2 mph 1.2 mph 32 % 0.00 in
16:27 99.2 °F 65.9 °F 29.73 in NNW 2.3 mph 2.3 mph 34 % 0.00 in
16:32 99.6 °F 63.6 °F 29.73 in SE 1.2 mph 1.2 mph 31 % 0.00 in
16:37 99.7 °F 65.5 °F 29.73 in SSE 1.2 mph 1.2 mph 33 % 0.00 in
16:42 99.8 °F 62.8 °F 29.73 in South 1.2 mph   30 % 0.00 in
16:47 100.0 °F 66.6 °F 29.73 in West 2.3 mph 2.3 mph 34 % 0.00 in
16:52 98.5 °F 66.9 °F 29.72 in NW 3.5 mph 3.5 mph 36 % 0.00 in
16:57 97.8 °F 69.4 °F 29.72 in WNW 1.2 mph 1.2 mph 40 % 0.00 in
17:02 97.8 °F 68.6 °F 29.72 in NW 3.5 mph 3.5 mph 39 % 0.00 in
17:07 97.5 °F 66.9 °F 29.72 in WSW 3.0 mph 3.0 mph 37 % 0.00 in
17:12 97.1 °F 67.3 °F 29.72 in NW 4.6 mph 4.6 mph 38 % 0.00 in
17:17 96.1 °F 66.4 °F 29.72 in NNW 3.5 mph 3.5 mph 38 % 0.00 in
17:22 95.5 °F 67.3 °F 29.71 in NW 2.0 mph 2.0 mph 40 % 0.00 in
17:27 95.7 °F 66.8 °F 29.71 in NW 2.3 mph 2.3 mph 39 % 0.00 in
17:32 95.9 °F 66.2 °F 29.71 in NNW 2.3 mph 2.3 mph 38 % 0.00 in
17:37 96.5 °F 65.2 °F 29.71 in NW 2.3 mph 2.3 mph 36 % 0.00 in
17:42 96.8 °F 68.5 °F 29.71 in NNW 3.5 mph 3.5 mph 40 % 0.00 in
17:47 97.1 °F 64.9 °F 29.71 in NW 3.0 mph 3.0 mph 35 % 0.00 in
17:52 97.3 °F 64.2 °F 29.71 in WSW 2.3 mph 2.3 mph 34 % 0.00 in
17:57 97.3 °F 64.2 °F 29.71 in NW 3.5 mph 3.5 mph 34 % 0.00 in
18:02 97.1 °F 64.1 °F 29.71 in NNW 2.3 mph 2.3 mph 34 % 0.00 in
18:07 96.8 °F 63.8 °F 29.71 in NNW 3.5 mph 3.5 mph 34 % 0.00 in
18:12 97.0 °F 63.1 °F 29.71 in NW 2.3 mph 2.3 mph 33 % 0.00 in
18:17 97.1 °F 63.2 °F 29.71 in WNW 1.2 mph 1.5 mph 33 % 0.00 in
18:22 97.0 °F 63.1 °F 29.70 in NNW 1.2 mph 1.2 mph 33 % 0.00 in
18:27 97.0 °F 63.1 °F 29.70 in NNW 2.3 mph 2.3 mph 33 % 0.00 in
18:32 96.9 °F 63.9 °F 29.71 in NNE 1.2 mph 1.2 mph 34 % 0.00 in
18:36 96.9 °F 62.2 °F 29.71 in NW 1.2 mph 1.2 mph 32 % 0.00 in
18:41 97.0 °F 62.3 °F 29.70 in West 1.2 mph 1.2 mph 32 % 0.00 in
18:46 96.8 °F 63.0 °F 29.70 in NW 2.3 mph 2.3 mph 33 % 0.00 in
18:51 96.6 °F 63.6 °F 29.70 in NNW 1.2 mph 1.2 mph 34 % 0.00 in
18:56 96.3 °F 63.4 °F 29.70 in NW 1.2 mph 1.2 mph 34 % 0.00 in
19:01 95.8 °F 62.9 °F 29.71 in WNW 1.2 mph 1.2 mph 34 % 0.00 in
19:06 95.3 °F 63.3 °F 29.71 in Calm     35 % 0.00 in
19:11 94.9 °F 62.1 °F 29.71 in WNW 1.2 mph 1.2 mph 34 % 0.00 in
19:16 94.8 °F 62.1 °F 29.71 in WNW 1.2 mph   34 % 0.00 in
19:21 94.5 °F 61.8 °F 29.71 in Calm     34 % 0.00 in
19:26 94.2 °F 61.5 °F 29.71 in WNW 1.2 mph 1.2 mph 34 % 0.00 in
19:31 93.8 °F 61.2 °F 29.71 in Calm     34 % 0.00 in
19:36 93.5 °F 61.7 °F 29.71 in Calm     35 % 0.00 in
19:41 93.0 °F 64.4 °F 29.71 in Calm     39 % 0.00 in
19:46 92.3 °F 64.5 °F 29.71 in Calm     40 % 0.00 in
19:51 91.7 °F 65.4 °F 29.71 in Calm     42 % 0.00 in
19:56 91.0 °F 66.7 °F 29.71 in Calm     45 % 0.00 in
20:01 90.3 °F 66.1 °F 29.72 in Calm     45 % 0.00 in
20:06 89.7 °F 64.9 °F 29.72 in Calm     44 % 0.00 in
20:11 89.3 °F 65.8 °F 29.72 in Calm     46 % 0.00 in
20:16 88.8 °F 66.6 °F 29.71 in Calm     48 % 0.00 in
20:22 88.4 °F 64.4 °F 29.72 in Calm     45 % 0.00 in
20:27 88.1 °F 65.9 °F 29.72 in Calm     48 % 0.00 in
20:32 87.8 °F 64.4 °F 29.71 in Calm     46 % 0.00 in
20:37 87.8 °F 65.1 °F 29.71 in Calm     47 % 0.00 in
20:42 87.9 °F 64.5 °F 29.72 in Calm     46 % 0.00 in
20:47 87.5 °F 67.7 °F 29.72 in Calm     52 % 0.00 in
20:52 86.7 °F 66.4 °F 29.72 in Calm     51 % 0.00 in
20:57 86.1 °F 65.3 °F 29.72 in Calm     50 % 0.00 in
21:02 85.7 °F 64.9 °F 29.72 in Calm     50 % 0.00 in
21:07 85.4 °F 66.3 °F 29.72 in Calm     53 % 0.00 in
21:12 85.4 °F 68.4 °F 29.73 in Calm     57 % 0.00 in
21:17 85.1 °F 67.1 °F 29.73 in Calm     55 % 0.00 in
21:22 84.9 °F 67.5 °F 29.73 in Calm     56 % 0.00 in
21:25 84.7 °F 67.3 °F 29.73 in Calm     56 % 0.00 in
21:30 84.5 °F 66.6 °F 29.73 in Calm     55 % 0.00 in
21:35 84.3 °F 67.4 °F 29.73 in Calm     57 % 0.00 in
21:40 84.1 °F 68.7 °F 29.73 in Calm     60 % 0.00 in
21:45 83.7 °F 67.8 °F 29.73 in Calm     59 % 0.00 in
21:50 83.5 °F 69.1 °F 29.73 in Calm     62 % 0.00 in
21:52 83.4 °F 69.5 °F 29.73 in WNW 1.2 mph   63 % 0.00 in
21:57 83.4 °F 69.5 °F 29.73 in WNW 1.2 mph 1.2 mph 63 % 0.00 in
22:02 83.3 °F 68.9 °F 29.73 in Calm     62 % 0.00 in
22:07 83.2 °F 68.8 °F 29.73 in Calm     62 % 0.00 in
22:12 83.0 °F 68.2 °F 29.73 in Calm     61 % 0.00 in
22:17 82.9 °F 68.1 °F 29.73 in Calm     61 % 0.00 in
22:22 82.7 °F 67.9 °F 29.73 in Calm     61 % 0.00 in
22:27 82.6 °F 66.8 °F 29.73 in Calm     59 % 0.00 in
22:32 82.8 °F 68.0 °F 29.73 in Calm     61 % 0.00 in
22:37 82.6 °F 68.3 °F 29.73 in Calm     62 % 0.00 in
22:42 82.4 °F 69.0 °F 29.73 in Calm     64 % 0.00 in
22:47 82.3 °F 67.0 °F 29.73 in Calm     60 % 0.00 in
22:52 82.4 °F 65.1 °F 29.73 in Calm     56 % 0.00 in
22:57 82.4 °F 64.6 °F 29.73 in Calm     55 % 0.00 in
23:02 82.3 °F 65.5 °F 29.73 in Calm     57 % 0.00 in
23:07 82.1 °F 65.4 °F 29.74 in Calm     57 % 0.00 in
23:12 81.8 °F 65.1 °F 29.74 in Calm     57 % 0.00 in
23:17 81.7 °F 65.0 °F 29.74 in Calm     57 % 0.00 in
23:22 81.5 °F 67.7 °F 29.74 in Calm     63 % 0.00 in
23:27 81.0 °F 66.8 °F 29.74 in Calm     62 % 0.00 in
23:32 80.7 °F 66.9 °F 29.74 in Calm     63 % 0.00 in
23:37 80.5 °F 67.2 °F 29.74 in Calm     64 % 0.00 in
23:42 80.2 °F 66.9 °F 29.74 in Calm     64 % 0.00 in
23:47 79.7 °F 67.8 °F 29.74 in Calm     67 % 0.00 in
23:52 79.2 °F 67.7 °F 29.74 in Calm     68 % 0.00 in
23:57 78.8 °F 67.8 °F 29.74 in Calm     69 % 0.00 in
Park Place, Exeter, Tulare County, California, USA
Compliments of Weather Underground - 2.75 mb